Main page
METAR-TAF:

METAR-TAF

Airports :

Balıkesir Koca Seyit Airport

Edremit, Turkey

latitude: 39-33-16N, longitude: 27-00-49E, elevation: 15 m

Current weather observation

The report was made 51 minutes ago, at 08:50 UTC
Wind 10 kt from the North/Northeast, varying between North and East/Northeast
Temperature 30°C
Humidity 43%
Pressure 1010 hPa
Visibility 10 km or more
Scattered clouds at a height of 3500 ft

METAR: LTFD 240850Z 03010KT 350V070 9999 SCT035 30/16 Q1010

Time: 12:41 (09:41 UTC)

Forecast

The report was made 2 hours and 1 minutes ago, at 07:40 UTC
Forecast valid from 24 at 09 UTC to 24 at 18 UTC
Wind 12 kt from the East
Visibility 10 km or more
Scattered clouds at a height of 3500 ft
Scattered clouds at a height of 10000 ft
Temporary
from 24 at 10 UTC to 24 at 14 UTC
light rain showers

TAF: LTFD 240740Z 2409/2418 08012KT 9999 SCT035 SCT100 TEMPO 2410/2414 -SHRA

Weather observations and forecasts of more than 4000 airports (METAR and TAF reports).

The available stations are represented by yellow and red dots on the map.

Hover mouse over dot to see the name of the station.

Then click to see weather observations and forecasts.

To change the map : click on the green buttons with a black cross to zoom in, on the green button with a dash to zoom out, or on the green arrows for adjacent maps.


METAR-TAF: